Terminal Aerodrome Forecast
Issued by NWS

Home | Current Version | Previous Version | Text Only | Print | Product List | Glossary On
Versions: 1 2 3 4 5 6 7 8 9 10 11 12 13 14 15 16 17 18 19
000
FTUS43 KIND 231400 AAA
TAFBMG
TAF AMD
KBMG 231419Z 2314/2412 15006KT P6SM SCT100 SCT250
     FM231800 17007KT P6SM FEW050 SCT100
     FM240100 13003KT P6SM BKN100
     FM241100 16006KT P6SM OVC080=

USA.gov is the U.S. government's official web portal to all federal, state and local government web resources and services.